createdAt,value
2019-01-08T00:00:13.932Z,19.20
2019-01-08T00:00:46.377Z,19.07
2019-01-08T00:01:18.833Z,22.25
2019-01-08T00:01:51.691Z,14.90
2019-01-08T00:02:24.154Z,16.35
2019-01-08T00:02:56.609Z,22.58
2019-01-08T00:03:29.064Z,16.57
2019-01-08T00:04:01.533Z,14.58
2019-01-08T00:04:34.013Z,16.90
2019-01-08T00:05:06.475Z,16.93
2019-01-08T00:05:38.943Z,18.57
2019-01-08T00:06:11.760Z,16.62
2019-01-08T00:06:44.221Z,21.68
2019-01-08T00:07:17.616Z,13.68
2019-01-08T00:07:50.921Z,14.23
2019-01-08T00:08:23.385Z,17.25
2019-01-08T00:08:55.835Z,15.83
2019-01-08T00:09:28.293Z,18.80
2019-01-08T00:10:01.193Z,16.82
2019-01-08T00:10:33.649Z,16.23
2019-01-08T00:11:06.470Z,18.12
2019-01-08T00:11:38.928Z,18.27
2019-01-08T00:12:11.399Z,17.92
2019-01-08T00:12:44.470Z,15.65
2019-01-08T00:13:17.201Z,20.48
2019-01-08T00:13:49.667Z,17.17
2019-01-08T00:14:22.786Z,16.02
2019-01-08T00:14:55.656Z,18.48
2019-01-08T00:15:28.066Z,17.48
2019-01-08T00:16:00.531Z,18.10
2019-01-08T00:16:32.991Z,19.07
2019-01-08T00:17:05.453Z,16.93
2019-01-08T00:17:37.923Z,16.37
2019-01-08T00:18:10.378Z,18.55
2019-01-08T00:18:43.190Z,17.30
2019-01-08T00:19:15.642Z,16.27
2019-01-08T00:19:48.085Z,16.85
2019-01-08T00:20:20.537Z,16.85
2019-01-08T00:20:53.041Z,17.27
2019-01-08T00:21:25.788Z,16.10
2019-01-08T00:21:58.871Z,17.40
2019-01-08T00:22:31.321Z,15.95
2019-01-08T00:23:04.171Z,14.98
2019-01-08T00:23:36.690Z,16.95
2019-01-08T00:24:09.085Z,17.00
2019-01-08T00:24:41.875Z,19.45
2019-01-08T00:25:14.329Z,17.32
2019-01-08T00:25:47.204Z,16.65
2019-01-08T00:26:19.706Z,16.52
2019-01-08T00:26:52.156Z,15.83
2019-01-08T00:27:24.958Z,14.65
2019-01-08T00:27:57.432Z,16.45
2019-01-08T00:28:29.885Z,16.80
2019-01-08T00:29:02.341Z,18.02
2019-01-08T00:29:34.799Z,17.48
2019-01-08T00:30:07.258Z,19.07
2019-01-08T00:30:40.110Z,15.98
2019-01-08T00:31:12.583Z,18.20
2019-01-08T00:31:45.361Z,21.30
2019-01-08T00:32:17.827Z,17.92
2019-01-08T00:32:50.565Z,20.15
2019-01-08T00:33:23.024Z,16.80
2019-01-08T00:33:55.473Z,18.85
2019-01-08T00:34:28.226Z,16.32
2019-01-08T00:35:00.840Z,21.30
2019-01-08T00:35:33.299Z,16.52
2019-01-08T00:36:05.753Z,19.35
2019-01-08T00:36:38.219Z,16.25
2019-01-08T00:37:10.736Z,18.70
2019-01-08T00:37:43.197Z,17.30
2019-01-08T00:38:15.658Z,17.35
2019-01-08T00:38:48.486Z,17.50
2019-01-08T00:39:20.925Z,22.62
2019-01-08T00:39:53.929Z,15.65
2019-01-08T00:40:26.391Z,18.57
2019-01-08T00:40:58.855Z,18.45
2019-01-08T00:41:31.310Z,14.75
2019-01-08T00:42:04.145Z,17.87
2019-01-08T00:42:37.377Z,15.78
2019-01-08T00:43:09.839Z,18.20
2019-01-08T00:43:42.675Z,19.87
2019-01-08T00:44:15.251Z,17.02
2019-01-08T00:44:47.714Z,17.35
2019-01-08T00:45:20.165Z,15.75
2019-01-08T00:45:52.626Z,17.07
2019-01-08T00:46:25.073Z,16.32
2019-01-08T00:46:57.525Z,15.98
2019-01-08T00:47:29.994Z,15.30
2019-01-08T00:48:02.506Z,14.83
2019-01-08T00:48:34.953Z,17.30
2019-01-08T00:49:07.430Z,15.65
2019-01-08T00:49:39.887Z,16.67
2019-01-08T00:50:12.488Z,15.78
2019-01-08T00:50:45.231Z,16.15
2019-01-08T00:51:17.694Z,13.18
2019-01-08T00:51:50.165Z,16.97
2019-01-08T00:52:23.026Z,12.80
2019-01-08T00:52:55.586Z,14.53
2019-01-08T00:53:28.069Z,14.87
2019-01-08T00:54:00.547Z,13.20
2019-01-08T00:54:33.291Z,15.25
2019-01-08T00:55:05.742Z,13.93
2019-01-08T00:55:38.198Z,12.90
2019-01-08T00:56:10.667Z,14.90
2019-01-08T00:56:43.117Z,13.20
2019-01-08T00:57:15.873Z,11.83
2019-01-08T00:57:48.631Z,14.98
2019-01-08T00:58:21.082Z,12.18
2019-01-08T00:58:53.965Z,14.95
2019-01-08T00:59:26.741Z,15.90
2019-01-08T00:59:59.212Z,12.53
2019-01-08T01:00:31.671Z,10.75
2019-01-08T01:01:04.138Z,12.45
2019-01-08T01:01:36.868Z,25.88
2019-01-08T01:02:09.799Z,13.25
2019-01-08T01:02:42.269Z,13.35
2019-01-08T01:03:14.721Z,16.40
2019-01-08T01:03:47.191Z,16.10
2019-01-08T01:04:20.137Z,13.43
2019-01-08T01:04:53.355Z,11.93
2019-01-08T01:05:26.175Z,12.15
2019-01-08T01:05:58.625Z,15.30
2019-01-08T01:06:31.103Z,15.38
2019-01-08T01:07:03.563Z,12.05
2019-01-08T01:07:36.005Z,13.75
2019-01-08T01:08:08.470Z,13.20
2019-01-08T01:08:40.937Z,15.53
2019-01-08T01:09:13.403Z,17.07
2019-01-08T01:09:45.887Z,13.32
2019-01-08T01:10:18.328Z,13.22
2019-01-08T01:10:50.785Z,11.48
2019-01-08T01:11:23.610Z,12.45
2019-01-08T01:11:56.072Z,12.65
2019-01-08T01:12:28.521Z,10.35
2019-01-08T01:13:00.977Z,14.00
2019-01-08T01:13:33.437Z,12.20
2019-01-08T01:14:05.902Z,12.07
2019-01-08T01:14:40.469Z,14.75
2019-01-08T01:15:13.339Z,13.60
2019-01-08T01:15:45.782Z,15.65
2019-01-08T01:16:18.567Z,11.93
2019-01-08T01:16:51.025Z,11.48
2019-01-08T01:17:23.499Z,10.63
2019-01-08T01:17:56.366Z,12.10
2019-01-08T01:18:28.951Z,13.98
2019-01-08T01:19:01.407Z,13.53
2019-01-08T01:19:33.875Z,11.28
2019-01-08T01:20:06.555Z,11.85
2019-01-08T01:20:39.034Z,10.88
2019-01-08T01:21:11.801Z,11.63
2019-01-08T01:21:44.545Z,9.50
2019-01-08T01:22:17.015Z,13.75
2019-01-08T01:22:49.812Z,10.50
2019-01-08T01:23:22.199Z,10.90
2019-01-08T01:23:55.354Z,12.47
2019-01-08T01:24:27.819Z,11.48
2019-01-08T01:25:00.599Z,11.75
2019-01-08T01:25:33.144Z,11.78
2019-01-08T01:26:05.645Z,9.93
2019-01-08T01:26:39.110Z,10.00
2019-01-08T01:27:11.557Z,11.88
2019-01-08T01:27:44.021Z,9.95
2019-01-08T01:28:16.739Z,11.55
2019-01-08T01:28:49.182Z,12.73
2019-01-08T01:29:21.641Z,9.40
2019-01-08T01:29:54.442Z,10.72
2019-01-08T01:30:26.892Z,9.23
2019-01-08T01:30:59.746Z,12.82
2019-01-08T01:31:32.243Z,8.90
2019-01-08T01:32:04.979Z,10.50
2019-01-08T01:32:37.445Z,9.08
2019-01-08T01:33:10.173Z,10.20
2019-01-08T01:33:42.639Z,12.95
2019-01-08T01:34:15.109Z,10.18
2019-01-08T01:34:47.702Z,9.05
2019-01-08T01:35:20.170Z,7.53
2019-01-08T01:35:52.629Z,9.08
2019-01-08T01:36:25.104Z,9.93
2019-01-08T01:36:57.585Z,8.88
2019-01-08T01:37:30.342Z,8.58
2019-01-08T01:38:02.812Z,9.55
2019-01-08T01:38:35.254Z,8.95
2019-01-08T01:39:07.708Z,10.05
2019-01-08T01:39:40.159Z,10.20
2019-01-08T01:40:12.630Z,9.15
2019-01-08T01:40:45.438Z,9.58
2019-01-08T01:41:18.173Z,9.63
2019-01-08T01:41:51.337Z,8.20
2019-01-08T01:42:23.854Z,8.40
2019-01-08T01:42:56.324Z,8.20
2019-01-08T01:43:28.785Z,6.62
2019-01-08T01:44:01.238Z,9.20
2019-01-08T01:44:33.953Z,9.95
2019-01-08T01:45:06.390Z,7.25
2019-01-08T01:45:39.221Z,8.30
2019-01-08T01:46:11.689Z,7.25
2019-01-08T01:46:44.303Z,7.28
2019-01-08T01:47:17.037Z,8.20
2019-01-08T01:47:49.535Z,7.08
2019-01-08T01:48:22.514Z,7.53
2019-01-08T01:48:54.880Z,9.13
2019-01-08T01:49:27.353Z,7.95
2019-01-08T01:50:00.150Z,7.85
2019-01-08T01:50:32.937Z,6.40
2019-01-08T01:51:05.415Z,7.67
2019-01-08T01:51:38.280Z,9.45
2019-01-08T01:52:10.998Z,8.88
2019-01-08T01:52:43.462Z,8.55
2019-01-08T01:53:15.977Z,6.75
2019-01-08T01:53:48.450Z,6.70
2019-01-08T01:54:21.216Z,6.70
2019-01-08T01:54:54.347Z,6.92
2019-01-08T01:55:27.078Z,8.48
2019-01-08T01:55:59.530Z,6.60
2019-01-08T01:56:32.401Z,7.78
2019-01-08T01:57:04.801Z,7.95
2019-01-08T01:57:37.258Z,8.53
2019-01-08T01:58:10.036Z,7.05
2019-01-08T01:58:42.513Z,8.05
2019-01-08T01:59:14.971Z,5.87
2019-01-08T01:59:47.437Z,7.90
2019-01-08T02:00:20.173Z,6.72
2019-01-08T02:00:52.643Z,8.10
2019-01-08T02:01:25.838Z,7.37
2019-01-08T02:01:58.574Z,7.65
2019-01-08T02:02:31.076Z,7.05
2019-01-08T02:03:03.918Z,7.95
2019-01-08T02:03:36.367Z,8.55
2019-01-08T02:04:08.891Z,7.72
2019-01-08T02:04:41.348Z,6.60
2019-01-08T02:05:13.797Z,7.20
2019-01-08T02:05:46.253Z,7.28
2019-01-08T02:06:18.719Z,6.55
2019-01-08T02:06:51.165Z,7.80
2019-01-08T02:07:23.673Z,6.83
2019-01-08T02:07:56.139Z,8.40
2019-01-08T02:08:28.945Z,5.95
2019-01-08T02:09:01.407Z,6.37
2019-01-08T02:09:33.895Z,7.05
2019-01-08T02:10:06.570Z,8.43
2019-01-08T02:10:39.108Z,7.22
2019-01-08T02:11:11.488Z,7.95
2019-01-08T02:11:43.945Z,7.20
2019-01-08T02:12:16.905Z,8.43
2019-01-08T02:12:49.345Z,6.55
2019-01-08T02:13:21.819Z,6.55
2019-01-08T02:13:54.576Z,8.00
2019-01-08T02:14:27.041Z,6.55
2019-01-08T02:14:59.545Z,7.67
2019-01-08T02:15:31.988Z,8.70
2019-01-08T02:16:04.442Z,5.75
2019-01-08T02:16:36.907Z,8.00
2019-01-08T02:17:09.379Z,6.75
2019-01-08T02:17:41.831Z,6.90
2019-01-08T02:18:14.649Z,7.87
2019-01-08T02:18:47.108Z,7.83
2019-01-08T02:19:19.553Z,7.75
2019-01-08T02:19:52.004Z,6.90
2019-01-08T02:20:24.497Z,8.40
2019-01-08T02:20:56.960Z,5.90
2019-01-08T02:21:29.431Z,7.35
2019-01-08T02:22:01.884Z,7.12
2019-01-08T02:22:34.333Z,7.92
2019-01-08T02:23:06.796Z,8.43
2019-01-08T02:23:39.255Z,7.25
2019-01-08T02:24:11.718Z,5.95
2019-01-08T02:24:44.173Z,7.80
2019-01-08T02:25:16.647Z,6.67
2019-01-08T02:25:49.150Z,9.65
2019-01-08T02:26:21.624Z,7.62
2019-01-08T02:26:54.448Z,5.55
2019-01-08T02:27:27.502Z,7.00
2019-01-08T02:28:00.243Z,6.72
2019-01-08T02:28:32.708Z,6.08
2019-01-08T02:29:05.174Z,7.65
2019-01-08T02:29:37.633Z,6.62
2019-01-08T02:30:10.513Z,6.90
2019-01-08T02:30:43.542Z,7.40
2019-01-08T02:31:16.145Z,4.95
2019-01-08T02:31:48.597Z,6.62
2019-01-08T02:32:22.126Z,6.33
2019-01-08T02:32:54.763Z,5.92
2019-01-08T02:33:27.219Z,5.92
2019-01-08T02:33:59.688Z,6.83
2019-01-08T02:34:32.160Z,6.65
2019-01-08T02:35:04.997Z,6.80
2019-01-08T02:35:37.458Z,5.83
2019-01-08T02:36:09.966Z,7.15
2019-01-08T02:36:42.411Z,7.35
2019-01-08T02:37:14.897Z,7.55
2019-01-08T02:37:47.622Z,5.72
2019-01-08T02:38:20.074Z,7.45
2019-01-08T02:38:52.533Z,7.65
2019-01-08T02:39:25.003Z,6.75
2019-01-08T02:39:57.454Z,8.08
2019-01-08T02:40:29.898Z,6.12
2019-01-08T02:41:02.646Z,7.40
2019-01-08T02:41:35.375Z,6.95
2019-01-08T02:42:08.269Z,7.87
2019-01-08T02:42:41.027Z,6.72
2019-01-08T02:43:13.500Z,6.15
2019-01-08T02:43:45.947Z,7.60
2019-01-08T02:44:18.705Z,6.85
2019-01-08T02:44:51.254Z,7.70
2019-01-08T02:45:23.693Z,5.72
2019-01-08T02:45:56.190Z,6.35
2019-01-08T02:46:28.673Z,8.63
2019-01-08T02:47:01.436Z,6.55
2019-01-08T02:47:33.929Z,7.30
2019-01-08T02:48:06.382Z,6.97
2019-01-08T02:48:38.839Z,7.10
2019-01-08T02:49:11.289Z,6.78
2019-01-08T02:49:43.768Z,7.10
2019-01-08T02:50:16.368Z,8.48
2019-01-08T02:50:48.818Z,8.40
2019-01-08T02:51:21.272Z,7.87
2019-01-08T02:51:53.756Z,7.60
2019-01-08T02:52:26.224Z,8.10
2019-01-08T02:52:58.706Z,6.95
2019-01-08T02:53:31.465Z,8.28
2019-01-08T02:54:03.922Z,7.10
2019-01-08T02:54:36.797Z,7.25
2019-01-08T02:55:09.258Z,7.65
2019-01-08T02:55:42.127Z,6.62
2019-01-08T02:56:14.604Z,7.42
2019-01-08T02:56:47.352Z,7.90
2019-01-08T02:57:20.124Z,8.08
2019-01-08T02:57:53.107Z,8.98
2019-01-08T02:58:25.596Z,7.40
2019-01-08T02:58:58.054Z,8.28
2019-01-08T02:59:30.511Z,8.78
2019-01-08T03:00:04.124Z,8.68
2019-01-08T03:00:36.853Z,10.35
2019-01-08T03:01:09.309Z,8.18
2019-01-08T03:01:41.768Z,7.80
2019-01-08T03:02:14.235Z,7.92
2019-01-08T03:02:47.015Z,9.63
2019-01-08T03:03:19.486Z,8.70
2019-01-08T03:03:52.174Z,8.18
2019-01-08T03:04:24.617Z,10.03
2019-01-08T03:04:57.091Z,7.90
2019-01-08T03:05:29.562Z,9.13
2019-01-08T03:06:02.014Z,7.90
2019-01-08T03:06:34.770Z,7.25
2019-01-08T03:07:07.494Z,6.55
2019-01-08T03:07:39.958Z,6.58
2019-01-08T03:08:12.410Z,6.87
2019-01-08T03:08:44.875Z,6.17
2019-01-08T03:09:17.637Z,6.65
2019-01-08T03:09:50.606Z,8.13
2019-01-08T03:10:23.074Z,9.60
2019-01-08T03:10:55.514Z,7.37
2019-01-08T03:11:27.964Z,8.73
2019-01-08T03:12:00.431Z,9.05
2019-01-08T03:12:33.196Z,6.97
2019-01-08T03:13:05.646Z,6.37
2019-01-08T03:13:38.113Z,7.05
2019-01-08T03:14:11.278Z,6.33
2019-01-08T03:14:44.091Z,7.80
2019-01-08T03:15:16.810Z,8.38
2019-01-08T03:15:49.625Z,9.40
2019-01-08T03:16:22.074Z,5.75
2019-01-08T03:16:54.533Z,7.75
2019-01-08T03:17:27.008Z,8.08
2019-01-08T03:17:59.467Z,8.85
2019-01-08T03:18:31.926Z,6.45
2019-01-08T03:19:04.382Z,7.67
2019-01-08T03:19:37.191Z,7.20
2019-01-08T03:20:09.691Z,7.30
2019-01-08T03:20:42.148Z,8.98
2019-01-08T03:21:14.744Z,6.95
2019-01-08T03:21:47.498Z,8.68
2019-01-08T03:22:19.978Z,7.35
2019-01-08T03:22:52.861Z,7.97
2019-01-08T03:23:25.320Z,6.20
2019-01-08T03:23:58.407Z,7.17
2019-01-08T03:24:30.879Z,8.10
2019-01-08T03:25:03.473Z,8.28
2019-01-08T03:25:35.965Z,7.70
2019-01-08T03:26:08.419Z,9.18
2019-01-08T03:26:40.886Z,8.20
2019-01-08T03:27:13.331Z,9.60
2019-01-08T03:27:45.812Z,8.08
2019-01-08T03:28:18.583Z,8.03
2019-01-08T03:28:51.510Z,7.45
2019-01-08T03:29:23.975Z,9.08
2019-01-08T03:29:56.437Z,7.83
2019-01-08T03:30:28.906Z,8.85
2019-01-08T03:31:01.686Z,9.25
2019-01-08T03:31:34.528Z,9.13
2019-01-08T03:32:06.996Z,10.13
2019-01-08T03:32:39.824Z,9.40
2019-01-08T03:33:12.300Z,9.68
2019-01-08T03:33:44.746Z,7.17
2019-01-08T03:34:17.220Z,7.75
2019-01-08T03:34:49.691Z,6.80
2019-01-08T03:35:22.160Z,7.47
2019-01-08T03:35:54.629Z,8.00
2019-01-08T03:36:27.182Z,7.95
2019-01-08T03:36:59.908Z,6.65
2019-01-08T03:37:32.383Z,8.10
2019-01-08T03:38:04.845Z,8.00
2019-01-08T03:38:37.587Z,6.60
2019-01-08T03:39:10.363Z,8.55
2019-01-08T03:39:42.802Z,10.20
2019-01-08T03:40:15.280Z,13.32
2019-01-08T03:40:47.736Z,16.45
2019-01-08T03:41:20.215Z,7.10
2019-01-08T03:41:52.689Z,6.45
2019-01-08T03:42:25.604Z,9.50
2019-01-08T03:42:58.139Z,8.38
2019-01-08T03:43:30.593Z,8.53
2019-01-08T03:44:03.076Z,7.78
2019-01-08T03:44:35.547Z,7.35
2019-01-08T03:45:08.022Z,7.42
2019-01-08T03:45:40.747Z,9.38
2019-01-08T03:46:13.205Z,5.87
2019-01-08T03:46:45.657Z,8.78
2019-01-08T03:47:18.158Z,6.28
2019-01-08T03:47:50.618Z,7.53
2019-01-08T03:48:23.087Z,8.90
2019-01-08T03:48:55.546Z,9.08
2019-01-08T03:49:28.002Z,7.05
2019-01-08T03:50:00.826Z,5.67
2019-01-08T03:50:33.290Z,7.92
2019-01-08T03:51:05.751Z,8.83
2019-01-08T03:51:38.215Z,8.58
2019-01-08T03:52:11.014Z,7.20
2019-01-08T03:52:43.494Z,10.48
2019-01-08T03:53:15.952Z,8.63
2019-01-08T03:53:48.681Z,8.15
2019-01-08T03:54:21.280Z,6.35
2019-01-08T03:54:53.757Z,7.90
2019-01-08T03:55:26.196Z,8.20
2019-01-08T03:55:59.247Z,6.97
2019-01-08T03:56:31.700Z,9.75
2019-01-08T03:57:04.146Z,8.90
2019-01-08T03:57:37.315Z,6.35
2019-01-08T03:58:09.807Z,7.15
2019-01-08T03:58:42.554Z,6.03
2019-01-08T03:59:15.001Z,6.87
2019-01-08T03:59:47.472Z,8.00
2019-01-08T04:00:20.221Z,5.85
2019-01-08T04:00:52.684Z,8.20
2019-01-08T04:01:25.154Z,7.25
2019-01-08T04:01:57.610Z,9.18
2019-01-08T04:02:30.079Z,5.97
2019-01-08T04:03:02.939Z,6.85
2019-01-08T04:03:35.439Z,6.55
2019-01-08T04:04:08.268Z,6.80
2019-01-08T04:04:41.031Z,8.45
2019-01-08T04:05:13.490Z,8.18
2019-01-08T04:05:45.947Z,8.38
2019-01-08T04:06:18.404Z,9.35
2019-01-08T04:06:50.867Z,8.15
2019-01-08T04:07:23.320Z,14.43
2019-01-08T04:07:56.514Z,10.85
2019-01-08T04:08:28.977Z,10.10
2019-01-08T04:09:01.611Z,9.95
2019-01-08T04:09:34.082Z,11.30
2019-01-08T04:10:07.683Z,9.58
2019-01-08T04:10:40.137Z,9.45
2019-01-08T04:11:12.611Z,8.65
2019-01-08T04:11:45.065Z,9.73
2019-01-08T04:12:17.528Z,12.35
2019-01-08T04:12:49.977Z,12.93
2019-01-08T04:13:22.852Z,10.08
2019-01-08T04:13:55.310Z,9.43
2019-01-08T04:14:27.801Z,12.50
2019-01-08T04:15:00.435Z,9.53
2019-01-08T04:15:32.890Z,9.00
2019-01-08T04:16:05.353Z,10.20
2019-01-08T04:16:37.813Z,8.40
2019-01-08T04:17:10.301Z,11.15
2019-01-08T04:17:42.755Z,10.10
2019-01-08T04:18:15.504Z,12.03
2019-01-08T04:18:47.983Z,10.60
2019-01-08T04:19:20.833Z,10.55
2019-01-08T04:19:53.630Z,11.55
2019-01-08T04:20:26.085Z,7.80
2019-01-08T04:20:58.546Z,9.78
2019-01-08T04:21:31.311Z,12.90
2019-01-08T04:22:03.775Z,10.35
2019-01-08T04:22:36.277Z,11.45
2019-01-08T04:23:08.778Z,9.73
2019-01-08T04:23:41.372Z,8.78
2019-01-08T04:24:13.948Z,8.30
2019-01-08T04:24:46.424Z,12.00
2019-01-08T04:25:18.902Z,13.90
2019-01-08T04:25:51.379Z,18.02
2019-01-08T04:26:23.829Z,11.88
2019-01-08T04:26:56.278Z,13.93
2019-01-08T04:27:29.231Z,17.07
2019-01-08T04:28:02.252Z,12.30
2019-01-08T04:28:34.709Z,14.90
2019-01-08T04:29:07.157Z,10.32
2019-01-08T04:29:39.971Z,10.40
2019-01-08T04:30:12.429Z,19.25
2019-01-08T04:30:45.299Z,12.80
2019-01-08T04:31:18.173Z,12.20
2019-01-08T04:31:50.616Z,11.83
2019-01-08T04:32:23.065Z,13.05
2019-01-08T04:32:55.512Z,12.00
2019-01-08T04:33:28.450Z,12.82
2019-01-08T04:34:00.900Z,12.37
2019-01-08T04:34:33.991Z,12.50
2019-01-08T04:35:06.583Z,11.00
2019-01-08T04:35:39.442Z,10.58
2019-01-08T04:36:11.925Z,8.60
2019-01-08T04:36:44.396Z,13.13
2019-01-08T04:37:16.858Z,8.85
2019-01-08T04:37:49.607Z,11.68
2019-01-08T04:38:22.414Z,10.53
2019-01-08T04:38:54.869Z,7.65
2019-01-08T04:39:27.328Z,8.78
2019-01-08T04:40:00.190Z,9.95
2019-01-08T04:40:32.656Z,12.18
2019-01-08T04:41:05.528Z,8.23
2019-01-08T04:41:38.015Z,8.15
2019-01-08T04:42:10.478Z,16.30
2019-01-08T04:42:42.958Z,9.53
2019-01-08T04:43:15.409Z,10.10
2019-01-08T04:43:47.893Z,8.75
2019-01-08T04:44:20.357Z,12.78
2019-01-08T04:44:52.817Z,10.08
2019-01-08T04:45:25.287Z,13.80
2019-01-08T04:45:57.741Z,11.55
2019-01-08T04:46:30.207Z,9.73
2019-01-08T04:47:02.687Z,7.65
2019-01-08T04:47:35.142Z,12.50
2019-01-08T04:48:07.589Z,11.45
2019-01-08T04:48:40.911Z,14.55
2019-01-08T04:49:13.361Z,10.72
2019-01-08T04:49:46.332Z,11.65
2019-01-08T04:50:19.064Z,13.38
2019-01-08T04:50:51.528Z,7.85
2019-01-08T04:51:23.988Z,6.75
2019-01-08T04:51:56.457Z,8.90
2019-01-08T04:52:30.585Z,8.63
2019-01-08T04:53:03.658Z,9.85
2019-01-08T04:53:36.132Z,13.35
2019-01-08T04:54:08.589Z,10.32
2019-01-08T04:54:41.045Z,12.37
2019-01-08T04:55:13.856Z,9.70
2019-01-08T04:55:46.310Z,11.78
2019-01-08T04:56:18.765Z,13.93
2019-01-08T04:56:51.246Z,10.05
2019-01-08T04:57:24.154Z,16.62
2019-01-08T04:57:56.633Z,13.78
2019-01-08T04:58:29.093Z,11.18
2019-01-08T04:59:01.561Z,11.28
2019-01-08T04:59:34.310Z,10.18
2019-01-08T05:00:07.630Z,14.28
2019-01-08T05:00:41.681Z,13.95
2019-01-08T05:01:14.180Z,11.12
2019-01-08T05:01:46.934Z,10.20
2019-01-08T05:02:19.394Z,10.65
2019-01-08T05:02:51.845Z,8.03
2019-01-08T05:03:24.395Z,17.27
2019-01-08T05:03:56.859Z,10.95
2019-01-08T05:04:29.667Z,10.20
2019-01-08T05:05:02.146Z,17.92
2019-01-08T05:05:34.616Z,10.48
2019-01-08T05:06:07.487Z,13.48
2019-01-08T05:06:39.943Z,14.25
2019-01-08T05:07:12.393Z,10.88
2019-01-08T05:07:44.852Z,11.20
2019-01-08T05:08:17.316Z,7.15
2019-01-08T05:08:49.794Z,11.60
2019-01-08T05:09:22.263Z,9.93
2019-01-08T05:09:54.723Z,8.58
2019-01-08T05:10:27.187Z,11.15
2019-01-08T05:11:00.119Z,13.70
2019-01-08T05:11:32.582Z,11.12
2019-01-08T05:12:05.041Z,10.03
2019-01-08T05:12:37.517Z,18.85
2019-01-08T05:13:09.971Z,11.03
2019-01-08T05:13:42.424Z,9.63
2019-01-08T05:14:14.926Z,10.10
2019-01-08T05:14:47.725Z,16.27
2019-01-08T05:15:20.208Z,12.50
2019-01-08T05:15:52.674Z,20.20
2019-01-08T05:16:25.123Z,26.15
2019-01-08T05:16:57.582Z,9.80
2019-01-08T05:17:30.742Z,16.27
2019-01-08T05:18:03.239Z,13.85
2019-01-08T05:18:35.668Z,10.90
2019-01-08T05:19:08.592Z,13.60
2019-01-08T05:19:41.022Z,10.30
2019-01-08T05:20:13.478Z,10.90
2019-01-08T05:20:46.383Z,11.40
2019-01-08T05:21:18.830Z,10.05
2019-01-08T05:21:51.294Z,9.65
2019-01-08T05:22:23.805Z,14.23
2019-01-08T05:22:56.578Z,11.12
2019-01-08T05:23:29.424Z,11.55
2019-01-08T05:24:02.031Z,11.65
2019-01-08T05:24:34.498Z,8.45
2019-01-08T05:25:07.015Z,10.85
2019-01-08T05:25:39.474Z,9.05
2019-01-08T05:26:11.944Z,9.23
2019-01-08T05:26:44.813Z,10.38
2019-01-08T05:27:17.285Z,11.45
2019-01-08T05:27:49.767Z,16.20
2019-01-08T05:28:22.631Z,10.10
2019-01-08T05:28:55.142Z,13.35
2019-01-08T05:29:28.065Z,12.73
2019-01-08T05:30:07.796Z,11.30
2019-01-08T05:30:35.140Z,10.85
2019-01-08T05:31:07.879Z,8.78
2019-01-08T05:31:40.348Z,8.50
2019-01-08T05:32:12.810Z,12.85
2019-01-08T05:32:45.262Z,10.35
2019-01-08T05:33:23.941Z,16.75
2019-01-08T05:33:56.867Z,11.35
2019-01-08T05:34:29.839Z,8.75
2019-01-08T05:35:02.650Z,12.95
2019-01-08T05:35:35.181Z,8.45
2019-01-08T05:36:07.684Z,11.88
2019-01-08T05:36:40.139Z,12.50
2019-01-08T05:37:12.630Z,9.78
2019-01-08T05:37:45.636Z,8.65
2019-01-08T05:38:18.626Z,16.27
2019-01-08T05:38:51.482Z,13.72
2019-01-08T05:39:23.953Z,14.85
2019-01-08T05:39:56.673Z,13.45
2019-01-08T05:40:29.204Z,11.20
2019-01-08T05:41:01.728Z,13.93
2019-01-08T05:41:34.338Z,23.15
2019-01-08T05:42:06.799Z,12.33
2019-01-08T05:42:39.627Z,12.73
2019-01-08T05:43:12.146Z,15.20
2019-01-08T05:43:44.593Z,14.93
2019-01-08T05:44:17.049Z,17.07
2019-01-08T05:44:49.893Z,14.00
2019-01-08T05:45:22.578Z,12.82
2019-01-08T05:45:55.035Z,14.98
2019-01-08T05:46:27.489Z,22.85
2019-01-08T05:47:00.157Z,14.53
2019-01-08T05:47:32.614Z,9.10
2019-01-08T05:48:05.194Z,10.98
2019-01-08T05:48:37.611Z,13.45
2019-01-08T05:49:10.062Z,14.85
2019-01-08T05:49:43.003Z,11.78
2019-01-08T05:50:15.449Z,14.15
2019-01-08T05:50:48.573Z,18.90
2019-01-08T05:51:21.034Z,12.20
2019-01-08T05:51:54.248Z,12.53
2019-01-08T05:52:26.734Z,18.40
2019-01-08T05:52:59.496Z,12.47
2019-01-08T05:53:31.958Z,20.08
2019-01-08T05:54:04.442Z,17.32
2019-01-08T05:54:36.888Z,13.58
2019-01-08T05:55:09.357Z,15.15
2019-01-08T05:55:42.353Z,9.35
2019-01-08T05:56:14.817Z,11.50
2019-01-08T05:56:47.279Z,12.23
2019-01-08T05:57:20.017Z,10.28
2019-01-08T05:57:52.519Z,13.88
2019-01-08T05:58:24.985Z,13.58
2019-01-08T05:58:57.449Z,8.45
2019-01-08T05:59:29.909Z,15.43
2019-01-08T06:00:02.404Z,19.23
2019-01-08T06:00:34.849Z,17.70
2019-01-08T06:01:07.327Z,17.35
2019-01-08T06:01:40.093Z,17.75
2019-01-08T06:02:12.567Z,10.15
2019-01-08T06:02:45.378Z,15.55
2019-01-08T06:03:17.883Z,13.35
2019-01-08T06:03:50.387Z,10.65
2019-01-08T06:04:22.854Z,13.05
2019-01-08T06:04:55.312Z,13.03
2019-01-08T06:05:27.783Z,13.53
2019-01-08T06:06:00.247Z,13.75
2019-01-08T06:06:33.280Z,10.58
2019-01-08T06:07:06.215Z,14.85
2019-01-08T06:07:38.739Z,13.55
2019-01-08T06:08:11.241Z,17.40
2019-01-08T06:08:43.752Z,11.75
2019-01-08T06:09:16.205Z,12.23
2019-01-08T06:09:49.173Z,12.00
2019-01-08T06:10:22.102Z,11.85
2019-01-08T06:10:54.570Z,14.95
2019-01-08T06:11:27.054Z,15.68
2019-01-08T06:11:59.580Z,9.18
2019-01-08T06:12:31.990Z,10.50
2019-01-08T06:13:04.471Z,9.35
2019-01-08T06:13:36.942Z,11.60
2019-01-08T06:14:09.443Z,14.78
2019-01-08T06:14:41.907Z,10.13
2019-01-08T06:15:14.384Z,11.00
2019-01-08T06:15:46.833Z,6.33
2019-01-08T06:16:19.307Z,21.60
2019-01-08T06:16:51.787Z,13.10
2019-01-08T06:17:24.240Z,15.15
2019-01-08T06:17:56.703Z,14.03
2019-01-08T06:18:29.574Z,16.00
2019-01-08T06:19:02.376Z,12.45
2019-01-08T06:19:34.874Z,15.68
2019-01-08T06:20:07.643Z,9.68
2019-01-08T06:20:40.104Z,19.25
2019-01-08T06:21:12.579Z,15.80
2019-01-08T06:21:45.048Z,14.93
2019-01-08T06:22:17.516Z,16.85
2019-01-08T06:22:49.978Z,15.58
2019-01-08T06:23:22.437Z,8.43
2019-01-08T06:23:54.919Z,14.18
2019-01-08T06:24:27.391Z,17.70
2019-01-08T06:25:00.673Z,15.80
2019-01-08T06:25:33.341Z,12.30
2019-01-08T06:26:05.803Z,16.20
2019-01-08T06:26:38.254Z,16.42
2019-01-08T06:27:10.717Z,10.88
2019-01-08T06:27:43.194Z,9.78
2019-01-08T06:28:16.214Z,15.43
2019-01-08T06:28:48.695Z,11.57
2019-01-08T06:29:21.105Z,14.15
2019-01-08T06:29:53.929Z,12.53
2019-01-08T06:30:26.429Z,8.70
2019-01-08T06:30:58.877Z,13.70
2019-01-08T06:31:31.321Z,15.60
2019-01-08T06:32:03.785Z,14.55
2019-01-08T06:32:36.991Z,17.45
2019-01-08T06:33:09.454Z,8.98
2019-01-08T06:33:41.916Z,15.20
2019-01-08T06:34:14.386Z,18.57
2019-01-08T06:34:46.943Z,12.40
2019-01-08T06:35:19.429Z,11.85
2019-01-08T06:35:51.928Z,10.28
2019-01-08T06:36:26.236Z,18.20
2019-01-08T06:36:58.962Z,15.78
2019-01-08T06:37:31.425Z,12.85
2019-01-08T06:38:03.895Z,21.23
2019-01-08T06:38:37.238Z,19.90
2019-01-08T06:39:09.719Z,9.85
2019-01-08T06:39:42.173Z,10.75
2019-01-08T06:40:14.650Z,10.45
2019-01-08T06:40:47.124Z,17.37
2019-01-08T06:41:20.108Z,15.08
2019-01-08T06:41:52.884Z,14.73
2019-01-08T06:42:25.359Z,27.00
2019-01-08T06:42:57.826Z,20.10
2019-01-08T06:43:30.292Z,16.87
2019-01-08T06:44:02.772Z,19.10
2019-01-08T06:44:35.218Z,12.80
2019-01-08T06:45:07.685Z,25.10
2019-01-08T06:45:40.156Z,13.98
2019-01-08T06:46:12.626Z,11.28
2019-01-08T06:46:45.382Z,12.73
2019-01-08T06:47:18.220Z,9.75
2019-01-08T06:47:50.690Z,17.40
2019-01-08T06:48:23.149Z,17.62
2019-01-08T06:48:56.001Z,16.73
2019-01-08T06:49:28.780Z,16.23
2019-01-08T06:50:01.256Z,21.37
2019-01-08T06:50:33.709Z,12.70
2019-01-08T06:51:06.475Z,12.23
2019-01-08T06:51:38.953Z,28.38
2019-01-08T06:52:11.725Z,10.00
2019-01-08T06:52:44.203Z,12.30
2019-01-08T06:53:16.720Z,11.43
2019-01-08T06:53:51.158Z,16.80
2019-01-08T06:54:24.837Z,10.35
2019-01-08T06:54:57.432Z,11.05
2019-01-08T06:55:30.267Z,19.10
2019-01-08T06:56:03.045Z,13.25
2019-01-08T06:56:35.498Z,12.18
2019-01-08T06:57:07.975Z,9.73
2019-01-08T06:57:40.497Z,15.90
2019-01-08T06:58:12.967Z,10.68
2019-01-08T06:58:45.440Z,12.85
2019-01-08T06:59:17.893Z,16.25
2019-01-08T06:59:50.625Z,13.98
2019-01-08T07:00:23.099Z,11.55
2019-01-08T07:00:56.112Z,12.07
2019-01-08T07:01:28.578Z,12.68
2019-01-08T07:02:01.042Z,11.73
2019-01-08T07:02:33.506Z,13.25
2019-01-08T07:03:06.031Z,30.43
2019-01-08T07:03:38.491Z,13.28
2019-01-08T07:04:11.621Z,9.08
2019-01-08T07:04:44.440Z,29.95
2019-01-08T07:05:16.901Z,11.08
2019-01-08T07:05:49.365Z,15.08